KRME/RME METAR and TAF weather

Enter ICAO airport designator
Station Type Date Time Source
KRME METAR 2018/12/11 22:31 UTC NOAA

KRME 112231Z 10004KT 4SM -SN BR OVC032 M03/M05 A2999 RMK AO2 P0000 T10281050


Station Type Date Time Source
KRME Decoded METAR 2018/12/11 22:31 UTC NOAA

GRIFFISS AIRFIELD, NY, United States (KRME) 43-14N 075-24W
Dec 11, 2018 - 05:31 PM EST / 2018.12.11 2231 UTC
Wind: from the E (100 degrees) at 5 MPH (4 KT):0
Visibility: 4 mile(s):0
Sky conditions: overcast
Weather: light snow; mist
Precipitation last hour: A trace
Temperature: 27.0 F (-2.8 C)
Windchill: 21 F (-6 C):1
Dew Point: 23.0 F (-5.0 C)
Relative Humidity: 84%
Pressure (altimeter): 29.99 in. Hg (1015 hPa)
ob: KRME 112231Z 10004KT 4SM -SN BR OVC032 M03/M05 A2999 RMK AO2 P0000 T10281050
cycle: 22

Station Type Date Time Source
KRME TAF 2018/12/11 22:06 UTC NOAA

TAF
AMD KRME 112204Z 1122/1218 VRB04KT 5SM -SN BR OVC025
TEMPO 1202/1205 2SM -SHSN BR OVC015
FM120500 28004KT 4SM -SHSN OVC015
FM120900 VRB04KT P6SM BKN025
FM121400 31005KT P6SM SCT025


Example: see airport list